首页
METAR-TAF:

METAR-TAF

机场 :

里加国际机场

里加, 拉脱维亚

纬度: 56-55N, 经度: 023-58E, 海拔: 10米

当前天气观测

该预报发布于33分钟前的06:50 UTC
风速5节,风向东南,在之间变化
温度 22°C
湿度 43%
气压 1015 hPa
能见度10公里或以上
1500米以下无云,无积雨云

METAR: EVRA 190650Z 13005KT 090V170 CAVOK 22/09 Q1015 NOSIG

时间: 10:23 (07:23 UTC)

预报

该预报发布于2小时和23分钟前的05:00 UTC
预报有效从19日的 06点(UTC)到 20日的 06点(UTC)
风速10节,风向东转东南
能见度10公里或以上
1500米以下无云,无积雨云
短暂存在
从 19日的 09点(UTC)到 19日的 15点(UTC)
风速15节,风向东转东南,有时为26节阵风

TAF: EVRA 190500Z 1906/2006 12010KT CAVOK TEMPO 1909/1915 12015G26KT

超过4000个机场的气象观测和天气预报(METAR&TAF报告)。

可查询的气象台以黄色和红色小点在地图上表示。

将鼠标移到小点上方,可查看气象台名称。

然后点击查看天气观测和预报。

如需切换地图:点击带黑十字的绿色按钮放大地图;点击带横线的绿色按钮缩小地图;或者点击绿色箭头查看邻近地区的地图。


METAR-TAF: